createdAt,value
2022-08-31T00:00:09.457Z,23.60
2022-08-31T00:02:54.962Z,23.59
2022-08-31T00:05:24.507Z,23.59
2022-08-31T00:07:52.927Z,23.58
2022-08-31T00:10:32.315Z,23.56
2022-08-31T00:13:02.897Z,23.52
2022-08-31T00:15:31.494Z,23.44
2022-08-31T00:17:59.747Z,23.27
2022-08-31T00:20:33.875Z,23.21
2022-08-31T00:23:03.049Z,23.14
2022-08-31T00:25:31.487Z,23.07
2022-08-31T00:27:59.283Z,22.82
2022-08-31T00:30:27.289Z,22.95
2022-08-31T00:32:57.168Z,22.92
2022-08-31T00:35:27.076Z,22.90
2022-08-31T00:37:56.512Z,22.85
2022-08-31T00:40:24.818Z,22.89
2022-08-31T00:42:52.808Z,22.87
2022-08-31T00:45:21.055Z,22.73
2022-08-31T00:47:49.016Z,22.73
2022-08-31T00:50:18.743Z,22.66
2022-08-31T00:52:51.644Z,22.62
2022-08-31T00:55:23.920Z,22.51
2022-08-31T00:57:56.619Z,22.51
2022-08-31T01:00:27.247Z,22.46
2022-08-31T01:02:56.548Z,22.46
2022-08-31T01:05:24.704Z,22.40
2022-08-31T01:07:53.718Z,22.39
2022-08-31T01:10:25.675Z,22.37
2022-08-31T01:12:56.534Z,22.39
2022-08-31T01:15:25.566Z,22.42
2022-08-31T01:17:56.127Z,22.41
2022-08-31T01:20:30.145Z,22.49
2022-08-31T01:23:11.534Z,22.49
2022-08-31T01:25:41.971Z,22.42
2022-08-31T01:28:11.042Z,22.34
2022-08-31T01:30:40.372Z,22.36
2022-08-31T01:33:11.357Z,22.27
2022-08-31T01:35:42.261Z,22.19
2022-08-31T01:38:13.207Z,22.20
2022-08-31T01:40:47.742Z,22.17
2022-08-31T01:43:16.084Z,22.16
2022-08-31T01:45:43.992Z,22.13
2022-08-31T01:48:12.949Z,22.15
2022-08-31T01:50:41.141Z,21.99
2022-08-31T01:53:09.343Z,22.03
2022-08-31T01:55:38.936Z,22.03
2022-08-31T01:58:07.163Z,22.03
2022-08-31T02:00:41.200Z,21.98
2022-08-31T02:03:09.354Z,21.94
2022-08-31T02:05:38.828Z,21.91
2022-08-31T02:08:09.986Z,21.95
2022-08-31T02:10:39.342Z,21.91
2022-08-31T02:13:07.829Z,21.91
2022-08-31T02:15:38.990Z,21.86
2022-08-31T02:18:06.910Z,21.83
2022-08-31T02:20:36.234Z,21.69
2022-08-31T02:23:04.490Z,21.91
2022-08-31T02:25:33.217Z,21.93
2022-08-31T02:28:05.161Z,21.90
2022-08-31T02:30:32.987Z,21.87
2022-08-31T02:33:01.100Z,21.89
2022-08-31T02:35:28.971Z,21.86
2022-08-31T02:37:57.254Z,21.88
2022-08-31T02:40:25.870Z,21.89
2022-08-31T02:42:54.334Z,21.87
2022-08-31T02:45:28.837Z,21.83
2022-08-31T02:48:04.542Z,21.82
2022-08-31T02:50:40.260Z,21.74
2022-08-31T02:53:08.513Z,21.68
2022-08-31T02:55:37.187Z,21.52
2022-08-31T02:58:06.127Z,21.62
2022-08-31T03:00:35.460Z,21.56
2022-08-31T03:03:04.559Z,21.46
2022-08-31T03:05:32.655Z,21.51
2022-08-31T03:08:00.797Z,21.55
2022-08-31T03:10:28.667Z,21.52
2022-08-31T03:12:57.415Z,21.48
2022-08-31T03:15:26.967Z,21.47
2022-08-31T03:17:56.302Z,21.38
2022-08-31T03:20:27.621Z,21.42
2022-08-31T03:22:56.012Z,21.36
2022-08-31T03:25:27.521Z,21.44
2022-08-31T03:27:55.542Z,21.39
2022-08-31T03:30:24.153Z,21.45
2022-08-31T03:33:10.480Z,21.32
2022-08-31T03:35:43.559Z,21.40
2022-08-31T03:38:12.708Z,21.34
2022-08-31T03:40:40.989Z,21.24
2022-08-31T03:43:11.787Z,21.02
2022-08-31T03:45:42.787Z,21.20
2022-08-31T03:48:13.289Z,21.19
2022-08-31T03:50:44.276Z,21.11
2022-08-31T03:53:22.447Z,21.14
2022-08-31T03:55:52.263Z,21.16
2022-08-31T03:58:20.154Z,21.19
2022-08-31T04:00:48.188Z,21.25
2022-08-31T04:03:38.250Z,21.27
2022-08-31T04:06:37.981Z,21.28
2022-08-31T04:09:24.782Z,21.27
2022-08-31T04:12:11.056Z,21.24
2022-08-31T04:14:59.530Z,21.26
2022-08-31T04:17:46.710Z,21.28
2022-08-31T04:20:40.483Z,21.25
2022-08-31T04:23:08.524Z,21.25
2022-08-31T04:25:39.843Z,21.14
2022-08-31T04:28:09.247Z,21.16
2022-08-31T04:30:42.343Z,21.19
2022-08-31T04:33:12.401Z,21.05
2022-08-31T04:35:41.912Z,21.14
2022-08-31T04:38:12.114Z,21.12
2022-08-31T04:40:42.319Z,21.11
2022-08-31T04:43:11.056Z,21.00
2022-08-31T04:45:45.203Z,20.94
2022-08-31T04:48:14.943Z,20.97
2022-08-31T04:50:45.154Z,21.06
2022-08-31T04:53:13.153Z,21.04
2022-08-31T04:55:41.929Z,21.03
2022-08-31T04:58:13.753Z,21.03
2022-08-31T05:00:43.302Z,21.04
2022-08-31T05:03:22.981Z,20.99
2022-08-31T05:05:55.379Z,21.05
2022-08-31T05:08:23.218Z,21.08
2022-08-31T05:10:51.101Z,21.04
2022-08-31T05:13:19.150Z,20.98
2022-08-31T05:15:47.344Z,21.03
2022-08-31T05:18:20.807Z,21.04
2022-08-31T05:20:56.183Z,21.06
2022-08-31T05:23:24.007Z,21.01
2022-08-31T05:25:52.159Z,21.06
2022-08-31T05:28:23.531Z,21.11
2022-08-31T05:30:51.493Z,21.10
2022-08-31T05:33:32.834Z,21.10
2022-08-31T05:36:03.922Z,21.12
2022-08-31T05:38:32.090Z,21.18
2022-08-31T05:41:00.951Z,21.12
2022-08-31T05:43:29.504Z,21.10
2022-08-31T05:45:57.882Z,21.14
2022-08-31T05:48:29.976Z,21.24
2022-08-31T05:51:03.165Z,21.25
2022-08-31T05:53:31.865Z,21.21
2022-08-31T05:56:03.301Z,21.37
2022-08-31T05:58:32.080Z,21.42
2022-08-31T06:01:01.391Z,21.37
2022-08-31T06:03:49.266Z,21.38
2022-08-31T06:06:18.682Z,21.44
2022-08-31T06:08:46.591Z,21.31
2022-08-31T06:11:19.303Z,21.49
2022-08-31T06:13:50.374Z,21.49
2022-08-31T06:16:18.743Z,21.53
2022-08-31T06:18:50.643Z,21.45
2022-08-31T06:21:23.634Z,21.52
2022-08-31T06:23:54.675Z,21.52
2022-08-31T06:26:25.113Z,21.54
2022-08-31T06:28:56.544Z,21.57
2022-08-31T06:31:27.885Z,21.55
2022-08-31T06:33:56.243Z,21.60
2022-08-31T06:36:51.704Z,21.59
2022-08-31T06:39:35.479Z,21.61
2022-08-31T06:42:17.740Z,21.53
2022-08-31T06:45:15.667Z,21.60
2022-08-31T06:48:00.496Z,21.58
2022-08-31T06:50:30.157Z,21.63
2022-08-31T06:53:01.016Z,21.67
2022-08-31T06:55:51.275Z,21.65
2022-08-31T06:58:38.018Z,21.64
2022-08-31T07:01:38.040Z,21.60
2022-08-31T07:04:22.267Z,21.66
2022-08-31T07:06:50.089Z,21.63
2022-08-31T07:09:19.866Z,21.68
2022-08-31T07:11:50.164Z,21.69
2022-08-31T07:14:22.624Z,21.70
2022-08-31T07:16:53.289Z,21.68
2022-08-31T07:19:22.003Z,21.68
2022-08-31T07:21:53.144Z,21.68
2022-08-31T07:24:25.722Z,21.70
2022-08-31T07:26:58.136Z,21.54
2022-08-31T07:29:40.350Z,21.69
2022-08-31T07:32:13.483Z,21.68
2022-08-31T07:34:43.898Z,21.68
2022-08-31T07:37:42.290Z,21.60
2022-08-31T07:40:29.889Z,21.66
2022-08-31T07:42:57.826Z,21.58
2022-08-31T07:45:30.219Z,21.69
2022-08-31T07:48:01.040Z,21.67
2022-08-31T07:50:46.623Z,21.70
2022-08-31T07:53:47.500Z,21.69
2022-08-31T07:56:42.099Z,21.71
2022-08-31T07:59:17.026Z,21.69
2022-08-31T08:01:46.990Z,21.71
2022-08-31T08:04:25.480Z,21.62
2022-08-31T08:07:17.983Z,21.79
2022-08-31T08:09:55.805Z,21.82
2022-08-31T08:13:05.757Z,21.80
2022-08-31T08:15:58.747Z,21.86
2022-08-31T08:18:47.403Z,21.92
2022-08-31T08:21:18.919Z,21.89
2022-08-31T08:23:48.308Z,21.89
2022-08-31T08:26:34.414Z,21.94
2022-08-31T08:29:11.187Z,21.93
2022-08-31T08:31:44.220Z,22.01
2022-08-31T08:34:13.304Z,22.03
2022-08-31T08:36:41.183Z,22.04
2022-08-31T08:39:13.092Z,21.94
2022-08-31T08:41:47.299Z,22.08
2022-08-31T08:44:18.868Z,22.13
2022-08-31T08:46:54.542Z,22.17
2022-08-31T08:49:36.263Z,22.24
2022-08-31T08:52:11.958Z,22.28
2022-08-31T08:54:44.150Z,22.22
2022-08-31T08:57:15.839Z,22.33
2022-08-31T08:59:49.052Z,22.38
2022-08-31T09:02:20.284Z,22.43
2022-08-31T09:05:21.762Z,22.46
2022-08-31T09:08:23.330Z,22.48
2022-08-31T09:11:08.591Z,22.56
2022-08-31T09:13:45.987Z,22.63
2022-08-31T09:16:28.709Z,22.75
2022-08-31T09:19:03.266Z,22.77
2022-08-31T09:21:40.615Z,22.85
2022-08-31T09:24:11.664Z,22.90
2022-08-31T09:27:17.741Z,22.89
2022-08-31T09:29:46.711Z,22.95
2022-08-31T09:32:23.165Z,23.00
2022-08-31T09:34:58.971Z,22.95
2022-08-31T09:37:33.208Z,22.91
2022-08-31T09:40:23.181Z,23.04
2022-08-31T09:43:04.159Z,23.14
2022-08-31T09:45:38.708Z,23.25
2022-08-31T09:48:11.208Z,23.33
2022-08-31T09:50:44.907Z,23.38
2022-08-31T09:53:34.233Z,23.37
2022-08-31T09:56:14.052Z,23.46
2022-08-31T09:58:44.028Z,23.41
2022-08-31T10:01:17.970Z,23.34
2022-08-31T10:03:47.877Z,23.38
2022-08-31T10:06:43.994Z,23.45
2022-08-31T10:09:28.005Z,23.52
2022-08-31T10:11:59.828Z,23.53
2022-08-31T10:14:36.083Z,23.63
2022-08-31T10:17:11.415Z,23.51
2022-08-31T10:19:56.468Z,23.85
2022-08-31T10:22:30.957Z,23.92
2022-08-31T10:25:07.094Z,24.13
2022-08-31T10:27:41.275Z,24.18
2022-08-31T10:30:17.890Z,24.30
2022-08-31T10:32:51.451Z,24.28
2022-08-31T10:35:25.275Z,24.35
2022-08-31T10:38:01.884Z,24.49
2022-08-31T10:40:33.960Z,24.74
2022-08-31T10:43:11.211Z,24.99
2022-08-31T10:45:43.643Z,25.03
2022-08-31T10:48:13.174Z,25.26
2022-08-31T10:50:50.251Z,25.33
2022-08-31T10:53:34.961Z,25.12
2022-08-31T10:56:14.924Z,25.04
2022-08-31T10:59:04.181Z,24.95
2022-08-31T11:01:44.757Z,25.12
2022-08-31T11:04:35.633Z,25.20
2022-08-31T11:07:14.314Z,25.29
2022-08-31T11:09:54.921Z,25.34
2022-08-31T11:12:29.164Z,25.42
2022-08-31T11:15:25.619Z,25.37
2022-08-31T11:18:20.089Z,25.18
2022-08-31T11:21:07.836Z,25.16
2022-08-31T11:24:01.554Z,25.18
2022-08-31T11:26:47.024Z,25.11
2022-08-31T11:29:28.988Z,24.98
2022-08-31T11:32:01.871Z,24.89
2022-08-31T11:34:39.232Z,24.77
2022-08-31T11:37:09.094Z,24.85
2022-08-31T11:39:44.579Z,24.97
2022-08-31T11:42:32.379Z,24.94
2022-08-31T11:45:02.865Z,25.32
2022-08-31T11:47:46.668Z,26.04
2022-08-31T11:50:56.026Z,26.17
2022-08-31T11:53:35.550Z,25.62
2022-08-31T11:56:06.969Z,25.42
2022-08-31T11:58:39.496Z,25.30
2022-08-31T12:01:25.334Z,25.10
2022-08-31T12:03:55.633Z,25.07
2022-08-31T12:07:08.077Z,25.01
2022-08-31T12:10:04.599Z,24.95
2022-08-31T12:12:53.180Z,24.93
2022-08-31T12:15:29.778Z,24.93
2022-08-31T12:18:10.708Z,24.91
2022-08-31T12:21:10.840Z,24.89
2022-08-31T12:23:51.795Z,24.83
2022-08-31T12:26:45.064Z,24.79
2022-08-31T12:29:29.443Z,24.77
2022-08-31T12:32:14.998Z,24.60
2022-08-31T12:34:49.856Z,24.77
2022-08-31T12:37:24.105Z,24.78
2022-08-31T12:40:07.685Z,24.75
2022-08-31T12:42:40.067Z,24.72
2022-08-31T12:45:13.677Z,24.72
2022-08-31T12:47:52.762Z,24.65
2022-08-31T12:50:30.581Z,24.62
2022-08-31T12:53:15.403Z,24.61
2022-08-31T12:55:50.261Z,24.58
2022-08-31T12:58:39.565Z,24.57
2022-08-31T13:01:13.158Z,24.51
2022-08-31T13:03:46.806Z,24.49
2022-08-31T13:06:27.203Z,24.50
2022-08-31T13:08:56.463Z,24.51
2022-08-31T13:11:35.321Z,24.52
2022-08-31T13:14:15.164Z,24.54
2022-08-31T13:16:47.041Z,24.59
2022-08-31T13:19:24.048Z,24.59
2022-08-31T13:21:55.055Z,24.64
2022-08-31T13:24:30.860Z,24.70
2022-08-31T13:27:10.043Z,24.72
2022-08-31T13:29:44.084Z,24.74
2022-08-31T13:32:32.279Z,24.75
2022-08-31T13:35:04.313Z,24.77
2022-08-31T13:37:36.034Z,24.83
2022-08-31T13:40:10.952Z,24.89
2022-08-31T13:42:42.862Z,24.94
2022-08-31T13:45:26.214Z,24.94
2022-08-31T13:47:58.385Z,25.03
2022-08-31T13:50:31.371Z,24.98
2022-08-31T13:55:49.536Z,25.08
2022-08-31T13:58:28.366Z,25.13
2022-08-31T14:01:21.172Z,25.29
2022-08-31T14:03:58.200Z,25.45
2022-08-31T14:06:29.249Z,25.52
2022-08-31T14:09:03.326Z,25.62
2022-08-31T14:11:33.822Z,25.82
2022-08-31T14:14:05.860Z,26.03
2022-08-31T14:16:36.818Z,26.14
2022-08-31T14:19:07.376Z,26.26
2022-08-31T14:21:41.969Z,26.32
2022-08-31T14:24:12.627Z,26.36
2022-08-31T14:26:42.883Z,26.41
2022-08-31T14:29:13.096Z,26.39
2022-08-31T14:31:48.340Z,26.33
2022-08-31T14:34:28.087Z,26.44
2022-08-31T14:37:04.192Z,26.38
2022-08-31T14:39:34.469Z,26.24
2022-08-31T14:42:06.128Z,26.38
2022-08-31T14:44:37.886Z,26.28
2022-08-31T14:47:06.299Z,26.46
2022-08-31T14:49:37.047Z,26.42
2022-08-31T14:52:07.045Z,26.34
2022-08-31T14:54:37.071Z,26.34
2022-08-31T14:57:09.561Z,26.21
2022-08-31T14:59:40.576Z,26.28
2022-08-31T15:02:10.067Z,26.30
2022-08-31T15:04:46.019Z,26.30
2022-08-31T15:07:15.226Z,26.34
2022-08-31T15:09:44.064Z,26.28
2022-08-31T15:12:14.836Z,26.42
2022-08-31T15:14:44.878Z,26.48
2022-08-31T15:17:18.977Z,26.50
2022-08-31T15:19:55.095Z,26.43
2022-08-31T15:22:25.560Z,26.55
2022-08-31T15:24:54.051Z,26.56
2022-08-31T15:27:23.373Z,26.56
2022-08-31T15:29:58.909Z,26.66
2022-08-31T15:32:27.750Z,26.69
2022-08-31T15:34:58.270Z,26.76
2022-08-31T15:37:30.101Z,26.83
2022-08-31T15:40:01.782Z,26.81
2022-08-31T15:42:31.376Z,26.50
2022-08-31T15:45:00.249Z,26.55
2022-08-31T15:47:47.853Z,26.38
2022-08-31T15:50:23.172Z,26.23
2022-08-31T15:52:56.169Z,26.03
2022-08-31T15:55:26.375Z,26.01
2022-08-31T15:57:56.793Z,25.89
2022-08-31T16:00:25.927Z,25.84
2022-08-31T16:02:55.915Z,25.85
2022-08-31T16:05:28.154Z,25.89
2022-08-31T16:07:57.298Z,25.89
2022-08-31T16:10:28.066Z,25.88
2022-08-31T16:12:55.940Z,25.92
2022-08-31T16:15:25.140Z,25.92
2022-08-31T16:17:57.105Z,25.91
2022-08-31T16:20:29.273Z,25.76
2022-08-31T16:22:58.671Z,25.87
2022-08-31T16:25:29.278Z,25.94
2022-08-31T16:27:59.692Z,26.01
2022-08-31T16:30:27.996Z,26.01
2022-08-31T16:32:55.781Z,25.96
2022-08-31T16:35:23.610Z,25.94
2022-08-31T16:37:52.766Z,25.97
2022-08-31T16:40:22.553Z,25.99
2022-08-31T16:42:50.382Z,25.96
2022-08-31T16:45:18.404Z,25.92
2022-08-31T16:47:46.131Z,25.90
2022-08-31T16:50:13.012Z,25.85
2022-08-31T16:52:43.919Z,25.78
2022-08-31T16:55:17.843Z,25.69
2022-08-31T16:57:45.687Z,25.64
2022-08-31T17:00:14.200Z,25.59
2022-08-31T17:02:41.988Z,25.51
2022-08-31T17:05:10.050Z,25.50
2022-08-31T17:07:42.576Z,25.46
2022-08-31T17:10:11.045Z,25.44
2022-08-31T17:12:42.046Z,25.38
2022-08-31T17:15:12.124Z,25.31
2022-08-31T17:17:39.871Z,25.24
2022-08-31T17:20:12.139Z,25.17
2022-08-31T17:22:40.010Z,25.13
2022-08-31T17:25:09.171Z,25.09
2022-08-31T17:27:36.963Z,25.06
2022-08-31T17:30:07.877Z,25.06
2022-08-31T17:32:44.782Z,25.06
2022-08-31T17:35:18.451Z,24.95
2022-08-31T17:37:50.712Z,24.99
2022-08-31T17:40:18.652Z,24.96
2022-08-31T17:42:48.517Z,24.94
2022-08-31T17:45:19.396Z,24.91
2022-08-31T17:47:47.860Z,24.88
2022-08-31T17:50:19.560Z,24.78
2022-08-31T17:52:50.871Z,24.86
2022-08-31T17:55:20.044Z,24.84
2022-08-31T17:57:48.791Z,24.80
2022-08-31T18:00:19.100Z,24.82
2022-08-31T18:02:49.667Z,24.76
2022-08-31T18:05:17.930Z,24.77
2022-08-31T18:07:46.728Z,24.77
2022-08-31T18:10:14.841Z,24.75
2022-08-31T18:12:42.682Z,24.72
2022-08-31T18:15:12.199Z,24.67
2022-08-31T18:17:42.007Z,24.64
2022-08-31T18:20:12.473Z,24.60
2022-08-31T18:22:40.884Z,24.54
2022-08-31T18:25:09.613Z,24.53
2022-08-31T18:27:37.402Z,24.51
2022-08-31T18:30:06.316Z,24.49
2022-08-31T18:32:36.136Z,24.45
2022-08-31T18:35:10.309Z,24.44
2022-08-31T18:37:38.295Z,24.40
2022-08-31T18:40:24.927Z,24.38
2022-08-31T18:43:09.970Z,24.36
2022-08-31T18:45:39.844Z,24.33
2022-08-31T18:48:24.422Z,24.31
2022-08-31T18:50:59.009Z,24.29
2022-08-31T18:53:29.762Z,24.27
2022-08-31T18:56:06.593Z,24.24
2022-08-31T18:58:35.678Z,24.20
2022-08-31T19:01:05.911Z,24.08
2022-08-31T19:03:37.877Z,24.06
2022-08-31T19:06:07.882Z,24.08
2022-08-31T19:08:38.524Z,24.05
2022-08-31T19:11:08.225Z,24.01
2022-08-31T19:13:37.649Z,24.00
2022-08-31T19:16:15.546Z,23.94
2022-08-31T19:18:49.237Z,23.92
2022-08-31T19:21:23.845Z,23.84
2022-08-31T19:23:52.096Z,23.88
2022-08-31T19:26:22.619Z,23.84
2022-08-31T19:28:50.836Z,23.83
2022-08-31T19:31:20.962Z,23.80
2022-08-31T19:33:49.310Z,23.77
2022-08-31T19:36:21.785Z,23.77
2022-08-31T19:38:49.833Z,23.76
2022-08-31T19:41:19.295Z,23.74
2022-08-31T19:43:54.809Z,23.75
2022-08-31T19:46:33.267Z,23.70
2022-08-31T19:49:01.579Z,23.75
2022-08-31T19:51:31.799Z,23.68
2022-08-31T19:54:03.789Z,23.66
2022-08-31T19:56:31.993Z,23.64
2022-08-31T19:59:00.628Z,23.61
2022-08-31T20:01:33.489Z,23.58
2022-08-31T20:04:02.508Z,23.56
2022-08-31T20:06:32.529Z,23.51
2022-08-31T20:09:00.809Z,23.34
2022-08-31T20:11:30.587Z,23.44
2022-08-31T20:13:59.571Z,23.42
2022-08-31T20:16:33.887Z,23.39
2022-08-31T20:19:04.736Z,23.38
2022-08-31T20:21:35.799Z,23.36
2022-08-31T20:24:07.009Z,23.22
2022-08-31T20:26:47.218Z,23.30
2022-08-31T20:29:19.183Z,23.28
2022-08-31T20:31:49.912Z,23.27
2022-08-31T20:34:20.063Z,23.25
2022-08-31T20:36:59.909Z,23.23
2022-08-31T20:39:30.032Z,23.20
2022-08-31T20:41:59.014Z,23.15
2022-08-31T20:44:29.402Z,23.12
2022-08-31T20:47:17.313Z,23.13
2022-08-31T20:49:47.093Z,23.10
2022-08-31T20:52:17.451Z,23.07
2022-08-31T20:54:45.896Z,23.08
2022-08-31T20:57:14.874Z,23.05
2022-08-31T20:59:42.800Z,23.06
2022-08-31T21:02:10.895Z,23.06
2022-08-31T21:04:41.922Z,23.05
2022-08-31T21:07:12.000Z,23.03
2022-08-31T21:09:43.139Z,23.02
2022-08-31T21:12:17.976Z,22.94
2022-08-31T21:14:46.661Z,22.98
2022-08-31T21:17:15.863Z,22.98
2022-08-31T21:19:44.711Z,22.95
2022-08-31T21:22:14.408Z,22.93
2022-08-31T21:24:44.245Z,22.79
2022-08-31T21:27:14.459Z,22.87
2022-08-31T21:29:43.790Z,22.76
2022-08-31T21:32:12.163Z,22.83
2022-08-31T21:34:40.163Z,22.83
2022-08-31T21:37:09.477Z,22.70
2022-08-31T21:39:38.361Z,22.82
2022-08-31T21:42:08.447Z,22.84
2022-08-31T21:44:37.442Z,22.84
2022-08-31T21:47:05.744Z,22.80
2022-08-31T21:49:35.004Z,22.77
2022-08-31T21:52:03.383Z,22.77
2022-08-31T21:54:31.283Z,22.73
2022-08-31T21:57:01.745Z,22.57
2022-08-31T21:59:34.944Z,22.68
2022-08-31T22:02:05.085Z,22.69
2022-08-31T22:04:35.763Z,22.63
2022-08-31T22:07:04.598Z,22.60
2022-08-31T22:09:33.054Z,22.57
2022-08-31T22:12:03.865Z,22.52
2022-08-31T22:14:36.109Z,22.48
2022-08-31T22:17:06.944Z,22.47
2022-08-31T22:19:37.973Z,22.43
2022-08-31T22:22:08.967Z,22.36
2022-08-31T22:24:41.159Z,22.32
2022-08-31T22:27:10.471Z,22.25
2022-08-31T22:29:41.071Z,22.21
2022-08-31T22:32:12.558Z,22.16
2022-08-31T22:34:41.118Z,22.02
2022-08-31T22:37:10.833Z,22.03
2022-08-31T22:39:39.818Z,21.99
2022-08-31T22:42:09.006Z,21.95
2022-08-31T22:44:40.441Z,21.93
2022-08-31T22:47:08.211Z,21.90
2022-08-31T22:49:36.163Z,21.87
2022-08-31T22:52:04.920Z,21.82
2022-08-31T22:54:34.453Z,21.76
2022-08-31T22:57:02.304Z,21.73
2022-08-31T22:59:30.536Z,21.69
2022-08-31T23:02:03.533Z,21.70
2022-08-31T23:04:34.278Z,21.67
2022-08-31T23:07:04.267Z,21.68
2022-08-31T23:09:33.823Z,21.55
2022-08-31T23:12:03.935Z,21.63
2022-08-31T23:14:32.659Z,21.61
2022-08-31T23:17:05.463Z,21.53
2022-08-31T23:19:37.062Z,21.54
2022-08-31T23:22:09.249Z,21.56
2022-08-31T23:24:40.707Z,21.53
2022-08-31T23:27:10.650Z,21.52
2022-08-31T23:29:40.992Z,21.48
2022-08-31T23:32:11.984Z,21.44
2022-08-31T23:34:39.890Z,21.44
2022-08-31T23:37:09.762Z,21.44
2022-08-31T23:39:39.518Z,21.38
2022-08-31T23:42:12.024Z,21.32
2022-08-31T23:44:43.367Z,21.29
2022-08-31T23:47:14.533Z,21.28
2022-08-31T23:49:43.796Z,21.24
2022-08-31T23:52:13.285Z,21.21
2022-08-31T23:54:41.515Z,21.13
2022-08-31T23:57:23.405Z,21.18
